sensor_id;sensor_type;location;lat;lon;timestamp;temperature;humidity
53498;DHT22;39382;47.168;16.008;2023-05-07T00:02:06;13.40;99.90
53498;DHT22;39382;47.168;16.008;2023-05-07T00:04:33;13.30;99.90
53498;DHT22;39382;47.168;16.008;2023-05-07T00:07:02;13.30;99.90
53498;DHT22;39382;47.168;16.008;2023-05-07T00:09:28;13.30;99.90
53498;DHT22;39382;47.168;16.008;2023-05-07T00:11:54;13.30;99.90
53498;DHT22;39382;47.168;16.008;2023-05-07T00:14:19;13.30;99.90
53498;DHT22;39382;47.168;16.008;2023-05-07T00:16:45;13.30;99.90
53498;DHT22;39382;47.168;16.008;2023-05-07T00:19:11;13.30;99.90
53498;DHT22;39382;47.168;16.008;2023-05-07T00:21:37;13.30;99.90
53498;DHT22;39382;47.168;16.008;2023-05-07T00:24:02;13.20;99.90
53498;DHT22;39382;47.168;16.008;2023-05-07T00:26:28;13.20;99.90
53498;DHT22;39382;47.168;16.008;2023-05-07T00:28:54;13.20;99.90
53498;DHT22;39382;47.168;16.008;2023-05-07T00:31:20;13.30;99.90
53498;DHT22;39382;47.168;16.008;2023-05-07T00:33:45;13.30;99.90
53498;DHT22;39382;47.168;16.008;2023-05-07T00:36:11;13.30;99.90
53498;DHT22;39382;47.168;16.008;2023-05-07T00:38:36;13.40;99.90
53498;DHT22;39382;47.168;16.008;2023-05-07T00:41:02;13.30;99.90
53498;DHT22;39382;47.168;16.008;2023-05-07T00:43:28;13.40;99.90
53498;DHT22;39382;47.168;16.008;2023-05-07T00:45:54;13.30;99.90
53498;DHT22;39382;47.168;16.008;2023-05-07T00:48:20;13.30;99.90
53498;DHT22;39382;47.168;16.008;2023-05-07T00:50:46;13.30;99.90
53498;DHT22;39382;47.168;16.008;2023-05-07T00:53:12;13.30;99.90
53498;DHT22;39382;47.168;16.008;2023-05-07T00:55:38;13.30;99.90
53498;DHT22;39382;47.168;16.008;2023-05-07T00:58:04;13.20;99.90
53498;DHT22;39382;47.168;16.008;2023-05-07T01:00:31;13.30;99.90
53498;DHT22;39382;47.168;16.008;2023-05-07T01:02:57;13.30;99.90
53498;DHT22;39382;47.168;16.008;2023-05-07T01:05:24;13.30;99.90
53498;DHT22;39382;47.168;16.008;2023-05-07T01:07:52;13.40;99.90
53498;DHT22;39382;47.168;16.008;2023-05-07T01:10:19;13.30;99.90
53498;DHT22;39382;47.168;16.008;2023-05-07T01:12:45;13.30;99.90
53498;DHT22;39382;47.168;16.008;2023-05-07T01:15:12;13.10;99.90
53498;DHT22;39382;47.168;16.008;2023-05-07T01:17:39;13.20;99.90
53498;DHT22;39382;47.168;16.008;2023-05-07T01:20:06;13.10;99.90
53498;DHT22;39382;47.168;16.008;2023-05-07T01:22:37;13.10;99.90
53498;DHT22;39382;47.168;16.008;2023-05-07T01:25:04;13.20;99.90
53498;DHT22;39382;47.168;16.008;2023-05-07T01:27:30;13.10;99.90
53498;DHT22;39382;47.168;16.008;2023-05-07T01:29:55;13.10;99.90
53498;DHT22;39382;47.168;16.008;2023-05-07T01:32:31;13.10;99.90
53498;DHT22;39382;47.168;16.008;2023-05-07T01:34:58;13.10;99.90
53498;DHT22;39382;47.168;16.008;2023-05-07T01:37:25;13.10;99.90
53498;DHT22;39382;47.168;16.008;2023-05-07T01:39:52;13.00;99.90
53498;DHT22;39382;47.168;16.008;2023-05-07T01:42:18;13.10;99.90
53498;DHT22;39382;47.168;16.008;2023-05-07T01:44:43;13.10;99.90
53498;DHT22;39382;47.168;16.008;2023-05-07T01:47:10;13.00;99.90
53498;DHT22;39382;47.168;16.008;2023-05-07T01:49:36;13.00;99.90
53498;DHT22;39382;47.168;16.008;2023-05-07T01:52:02;13.10;99.90
53498;DHT22;39382;47.168;16.008;2023-05-07T01:54:28;13.00;99.90
53498;DHT22;39382;47.168;16.008;2023-05-07T01:56:55;13.10;99.90
53498;DHT22;39382;47.168;16.008;2023-05-07T01:59:21;13.00;99.90
53498;DHT22;39382;47.168;16.008;2023-05-07T02:01:46;12.90;99.90
53498;DHT22;39382;47.168;16.008;2023-05-07T02:04:12;12.90;99.90
53498;DHT22;39382;47.168;16.008;2023-05-07T02:06:38;12.90;99.90
53498;DHT22;39382;47.168;16.008;2023-05-07T02:09:04;12.80;99.90
53498;DHT22;39382;47.168;16.008;2023-05-07T02:11:30;12.80;99.90
53498;DHT22;39382;47.168;16.008;2023-05-07T02:13:55;12.80;99.90
53498;DHT22;39382;47.168;16.008;2023-05-07T02:16:21;12.80;99.90
53498;DHT22;39382;47.168;16.008;2023-05-07T02:18:48;12.80;99.90
53498;DHT22;39382;47.168;16.008;2023-05-07T02:21:14;12.70;99.90
53498;DHT22;39382;47.168;16.008;2023-05-07T02:23:39;12.60;99.90
53498;DHT22;39382;47.168;16.008;2023-05-07T02:26:05;12.70;99.90
53498;DHT22;39382;47.168;16.008;2023-05-07T02:28:31;12.70;99.90
53498;DHT22;39382;47.168;16.008;2023-05-07T02:30:56;12.70;99.90
53498;DHT22;39382;47.168;16.008;2023-05-07T02:33:24;12.70;99.90
53498;DHT22;39382;47.168;16.008;2023-05-07T02:35:50;12.70;99.90
53498;DHT22;39382;47.168;16.008;2023-05-07T02:38:17;12.60;99.90
53498;DHT22;39382;47.168;16.008;2023-05-07T02:40:43;12.60;99.90
53498;DHT22;39382;47.168;16.008;2023-05-07T02:43:09;12.50;99.90
53498;DHT22;39382;47.168;16.008;2023-05-07T02:45:34;12.40;99.90
53498;DHT22;39382;47.168;16.008;2023-05-07T02:48:01;12.40;99.90
53498;DHT22;39382;47.168;16.008;2023-05-07T02:50:27;12.30;99.90
53498;DHT22;39382;47.168;16.008;2023-05-07T02:52:52;12.30;99.90
53498;DHT22;39382;47.168;16.008;2023-05-07T02:55:18;12.20;99.90
53498;DHT22;39382;47.168;16.008;2023-05-07T02:57:44;12.20;99.90
53498;DHT22;39382;47.168;16.008;2023-05-07T03:00:11;12.10;99.90
53498;DHT22;39382;47.168;16.008;2023-05-07T03:02:37;12.10;99.90
53498;DHT22;39382;47.168;16.008;2023-05-07T03:05:03;12.00;99.90
53498;DHT22;39382;47.168;16.008;2023-05-07T03:07:29;11.90;99.90
53498;DHT22;39382;47.168;16.008;2023-05-07T03:09:54;11.90;99.90
53498;DHT22;39382;47.168;16.008;2023-05-07T03:12:20;11.80;99.90
53498;DHT22;39382;47.168;16.008;2023-05-07T03:14:46;11.70;99.90
53498;DHT22;39382;47.168;16.008;2023-05-07T03:17:11;11.70;99.90
53498;DHT22;39382;47.168;16.008;2023-05-07T03:19:37;11.70;99.90
53498;DHT22;39382;47.168;16.008;2023-05-07T03:22:03;11.60;99.90
53498;DHT22;39382;47.168;16.008;2023-05-07T03:24:28;11.60;99.90
53498;DHT22;39382;47.168;16.008;2023-05-07T03:26:54;11.60;99.90
53498;DHT22;39382;47.168;16.008;2023-05-07T03:29:19;11.60;99.90
53498;DHT22;39382;47.168;16.008;2023-05-07T03:31:45;11.60;99.90
53498;DHT22;39382;47.168;16.008;2023-05-07T03:34:11;11.60;99.90
53498;DHT22;39382;47.168;16.008;2023-05-07T03:36:36;11.60;99.90
53498;DHT22;39382;47.168;16.008;2023-05-07T03:39:02;11.70;99.90
53498;DHT22;39382;47.168;16.008;2023-05-07T03:41:28;11.70;99.90
53498;DHT22;39382;47.168;16.008;2023-05-07T03:43:55;11.70;99.90
53498;DHT22;39382;47.168;16.008;2023-05-07T03:46:20;11.80;99.90
53498;DHT22;39382;47.168;16.008;2023-05-07T03:48:47;11.80;99.90
53498;DHT22;39382;47.168;16.008;2023-05-07T03:51:13;11.80;99.90
53498;DHT22;39382;47.168;16.008;2023-05-07T03:53:38;11.90;99.90
53498;DHT22;39382;47.168;16.008;2023-05-07T03:56:04;12.40;99.90
53498;DHT22;39382;47.168;16.008;2023-05-07T03:58:29;12.20;99.90
53498;DHT22;39382;47.168;16.008;2023-05-07T04:00:55;12.20;99.90
53498;DHT22;39382;47.168;16.008;2023-05-07T04:03:21;12.20;99.90
53498;DHT22;39382;47.168;16.008;2023-05-07T04:05:46;12.20;99.90
53498;DHT22;39382;47.168;16.008;2023-05-07T04:08:12;12.10;99.90
53498;DHT22;39382;47.168;16.008;2023-05-07T04:10:38;12.10;99.90
53498;DHT22;39382;47.168;16.008;2023-05-07T04:13:03;12.00;99.90
53498;DHT22;39382;47.168;16.008;2023-05-07T04:15:29;12.00;99.90
53498;DHT22;39382;47.168;16.008;2023-05-07T04:17:54;12.10;99.90
53498;DHT22;39382;47.168;16.008;2023-05-07T04:20:20;12.00;99.90
53498;DHT22;39382;47.168;16.008;2023-05-07T04:22:46;12.00;99.90
53498;DHT22;39382;47.168;16.008;2023-05-07T04:25:11;12.00;99.90
53498;DHT22;39382;47.168;16.008;2023-05-07T04:27:37;12.00;99.90
53498;DHT22;39382;47.168;16.008;2023-05-07T04:30:03;12.00;99.90
53498;DHT22;39382;47.168;16.008;2023-05-07T04:32:29;12.00;99.90
53498;DHT22;39382;47.168;16.008;2023-05-07T04:34:56;12.00;99.90
53498;DHT22;39382;47.168;16.008;2023-05-07T04:37:22;12.00;99.90
53498;DHT22;39382;47.168;16.008;2023-05-07T04:39:48;12.00;99.90
53498;DHT22;39382;47.168;16.008;2023-05-07T04:42:17;12.00;99.90
53498;DHT22;39382;47.168;16.008;2023-05-07T04:44:44;11.90;99.90
53498;DHT22;39382;47.168;16.008;2023-05-07T04:47:10;12.00;99.90
53498;DHT22;39382;47.168;16.008;2023-05-07T04:49:37;12.00;99.90
53498;DHT22;39382;47.168;16.008;2023-05-07T04:52:03;12.10;99.90
53498;DHT22;39382;47.168;16.008;2023-05-07T04:54:29;12.10;99.90
53498;DHT22;39382;47.168;16.008;2023-05-07T04:56:55;12.20;99.90
53498;DHT22;39382;47.168;16.008;2023-05-07T04:59:21;12.30;99.90
53498;DHT22;39382;47.168;16.008;2023-05-07T05:01:46;12.20;99.90
53498;DHT22;39382;47.168;16.008;2023-05-07T05:04:12;12.20;99.90
53498;DHT22;39382;47.168;16.008;2023-05-07T05:06:38;12.30;99.90
53498;DHT22;39382;47.168;16.008;2023-05-07T05:09:04;12.40;99.90
53498;DHT22;39382;47.168;16.008;2023-05-07T05:11:31;12.30;99.90
53498;DHT22;39382;47.168;16.008;2023-05-07T05:13:56;12.30;99.90
53498;DHT22;39382;47.168;16.008;2023-05-07T05:16:22;12.30;99.90
53498;DHT22;39382;47.168;16.008;2023-05-07T05:18:48;12.30;99.90
53498;DHT22;39382;47.168;16.008;2023-05-07T05:21:13;12.40;99.90
53498;DHT22;39382;47.168;16.008;2023-05-07T05:23:39;12.50;99.90
53498;DHT22;39382;47.168;16.008;2023-05-07T05:26:05;12.50;99.90
53498;DHT22;39382;47.168;16.008;2023-05-07T05:28:30;12.60;99.90
53498;DHT22;39382;47.168;16.008;2023-05-07T05:30:56;12.70;99.90
53498;DHT22;39382;47.168;16.008;2023-05-07T05:33:21;12.90;99.90
53498;DHT22;39382;47.168;16.008;2023-05-07T05:35:47;13.10;99.90
53498;DHT22;39382;47.168;16.008;2023-05-07T05:38:13;13.20;99.90
53498;DHT22;39382;47.168;16.008;2023-05-07T05:40:39;13.20;99.90
53498;DHT22;39382;47.168;16.008;2023-05-07T05:43:05;13.30;99.90
53498;DHT22;39382;47.168;16.008;2023-05-07T05:45:31;13.40;99.90
53498;DHT22;39382;47.168;16.008;2023-05-07T05:47:57;13.60;99.90
53498;DHT22;39382;47.168;16.008;2023-05-07T05:50:23;13.70;99.90
53498;DHT22;39382;47.168;16.008;2023-05-07T05:52:48;13.90;99.90
53498;DHT22;39382;47.168;16.008;2023-05-07T05:55:14;14.00;99.90
53498;DHT22;39382;47.168;16.008;2023-05-07T05:57:40;14.00;99.90
53498;DHT22;39382;47.168;16.008;2023-05-07T06:00:06;14.10;99.90
53498;DHT22;39382;47.168;16.008;2023-05-07T06:02:33;14.10;99.90
53498;DHT22;39382;47.168;16.008;2023-05-07T06:04:58;14.30;99.90
53498;DHT22;39382;47.168;16.008;2023-05-07T06:07:24;14.30;99.90
53498;DHT22;39382;47.168;16.008;2023-05-07T06:09:50;14.50;99.90
53498;DHT22;39382;47.168;16.008;2023-05-07T06:12:16;14.70;99.90
53498;DHT22;39382;47.168;16.008;2023-05-07T06:14:43;14.90;99.90
53498;DHT22;39382;47.168;16.008;2023-05-07T06:17:09;15.10;99.90
53498;DHT22;39382;47.168;16.008;2023-05-07T06:19:35;15.20;99.90
53498;DHT22;39382;47.168;16.008;2023-05-07T06:22:01;15.40;99.90
53498;DHT22;39382;47.168;16.008;2023-05-07T06:24:28;15.60;99.90
53498;DHT22;39382;47.168;16.008;2023-05-07T06:26:54;15.60;99.90
53498;DHT22;39382;47.168;16.008;2023-05-07T06:29:19;15.80;99.90
53498;DHT22;39382;47.168;16.008;2023-05-07T06:31:45;15.80;99.90
53498;DHT22;39382;47.168;16.008;2023-05-07T06:34:11;15.90;99.90
53498;DHT22;39382;47.168;16.008;2023-05-07T06:36:40;15.90;99.90
53498;DHT22;39382;47.168;16.008;2023-05-07T06:39:06;15.90;99.90
53498;DHT22;39382;47.168;16.008;2023-05-07T06:41:31;16.00;99.90
53498;DHT22;39382;47.168;16.008;2023-05-07T06:43:57;16.10;99.90
53498;DHT22;39382;47.168;16.008;2023-05-07T06:46:23;16.40;99.90
53498;DHT22;39382;47.168;16.008;2023-05-07T06:48:48;16.60;99.90
53498;DHT22;39382;47.168;16.008;2023-05-07T06:51:14;16.80;99.90
53498;DHT22;39382;47.168;16.008;2023-05-07T06:53:39;17.10;99.90
53498;DHT22;39382;47.168;16.008;2023-05-07T06:56:06;17.30;99.90
53498;DHT22;39382;47.168;16.008;2023-05-07T06:58:31;17.50;99.90
53498;DHT22;39382;47.168;16.008;2023-05-07T07:00:57;17.70;99.90
53498;DHT22;39382;47.168;16.008;2023-05-07T07:03:23;17.60;99.90
53498;DHT22;39382;47.168;16.008;2023-05-07T07:05:52;17.40;99.90
53498;DHT22;39382;47.168;16.008;2023-05-07T07:08:17;17.30;99.90
53498;DHT22;39382;47.168;16.008;2023-05-07T07:10:43;17.50;99.90
53498;DHT22;39382;47.168;16.008;2023-05-07T07:13:09;17.60;99.90
53498;DHT22;39382;47.168;16.008;2023-05-07T07:15:34;17.70;99.90
53498;DHT22;39382;47.168;16.008;2023-05-07T07:18:00;17.90;99.90
53498;DHT22;39382;47.168;16.008;2023-05-07T07:20:26;18.20;99.90
53498;DHT22;39382;47.168;16.008;2023-05-07T07:22:51;18.40;99.90
53498;DHT22;39382;47.168;16.008;2023-05-07T07:25:17;18.40;99.90
53498;DHT22;39382;47.168;16.008;2023-05-07T07:27:43;18.70;99.90
53498;DHT22;39382;47.168;16.008;2023-05-07T07:30:08;19.00;99.90
53498;DHT22;39382;47.168;16.008;2023-05-07T07:32:34;19.30;99.90
53498;DHT22;39382;47.168;16.008;2023-05-07T07:35:00;19.40;99.90
53498;DHT22;39382;47.168;16.008;2023-05-07T07:37:26;19.40;99.90
53498;DHT22;39382;47.168;16.008;2023-05-07T07:39:52;19.20;99.90
53498;DHT22;39382;47.168;16.008;2023-05-07T07:42:18;19.30;99.90
53498;DHT22;39382;47.168;16.008;2023-05-07T07:44:43;19.50;99.90
53498;DHT22;39382;47.168;16.008;2023-05-07T07:47:09;19.70;99.90
53498;DHT22;39382;47.168;16.008;2023-05-07T07:49:35;19.80;99.90
53498;DHT22;39382;47.168;16.008;2023-05-07T07:52:01;19.70;99.90
53498;DHT22;39382;47.168;16.008;2023-05-07T07:54:27;19.60;99.90
53498;DHT22;39382;47.168;16.008;2023-05-07T07:56:52;19.50;99.90
53498;DHT22;39382;47.168;16.008;2023-05-07T07:59:18;19.20;99.90
53498;DHT22;39382;47.168;16.008;2023-05-07T08:01:44;19.00;99.90
53498;DHT22;39382;47.168;16.008;2023-05-07T08:04:10;19.00;99.90
53498;DHT22;39382;47.168;16.008;2023-05-07T08:06:36;19.00;99.90
53498;DHT22;39382;47.168;16.008;2023-05-07T08:09:01;19.10;99.90
53498;DHT22;39382;47.168;16.008;2023-05-07T08:11:28;19.10;99.90
53498;DHT22;39382;47.168;16.008;2023-05-07T08:13:54;19.20;99.90
53498;DHT22;39382;47.168;16.008;2023-05-07T08:16:20;19.00;99.90
53498;DHT22;39382;47.168;16.008;2023-05-07T08:18:46;19.30;99.90
53498;DHT22;39382;47.168;16.008;2023-05-07T08:21:11;19.30;99.90
53498;DHT22;39382;47.168;16.008;2023-05-07T08:23:37;19.30;99.90
53498;DHT22;39382;47.168;16.008;2023-05-07T08:26:03;19.50;99.90
53498;DHT22;39382;47.168;16.008;2023-05-07T08:28:29;19.70;99.90
53498;DHT22;39382;47.168;16.008;2023-05-07T08:30:54;19.80;99.90
53498;DHT22;39382;47.168;16.008;2023-05-07T08:33:22;19.70;99.90
53498;DHT22;39382;47.168;16.008;2023-05-07T08:35:47;19.70;99.90
53498;DHT22;39382;47.168;16.008;2023-05-07T08:38:13;19.60;99.90
53498;DHT22;39382;47.168;16.008;2023-05-07T08:40:39;19.50;99.90
53498;DHT22;39382;47.168;16.008;2023-05-07T08:43:06;19.60;99.90
53498;DHT22;39382;47.168;16.008;2023-05-07T08:45:34;19.90;99.90
53498;DHT22;39382;47.168;16.008;2023-05-07T08:48:01;20.10;99.90
53498;DHT22;39382;47.168;16.008;2023-05-07T08:50:27;20.40;99.90
53498;DHT22;39382;47.168;16.008;2023-05-07T08:52:53;20.80;99.90
53498;DHT22;39382;47.168;16.008;2023-05-07T08:55:20;20.90;99.80
53498;DHT22;39382;47.168;16.008;2023-05-07T08:57:45;21.00;99.80
53498;DHT22;39382;47.168;16.008;2023-05-07T09:00:12;21.20;99.30
53498;DHT22;39382;47.168;16.008;2023-05-07T09:02:38;21.40;97.40
53498;DHT22;39382;47.168;16.008;2023-05-07T09:05:04;21.80;98.10
53498;DHT22;39382;47.168;16.008;2023-05-07T09:07:30;22.00;97.20
53498;DHT22;39382;47.168;16.008;2023-05-07T09:09:56;22.00;94.00
53498;DHT22;39382;47.168;16.008;2023-05-07T09:12:25;22.10;94.50
53498;DHT22;39382;47.168;16.008;2023-05-07T09:14:50;22.00;94.90
53498;DHT22;39382;47.168;16.008;2023-05-07T09:17:16;21.60;94.40
53498;DHT22;39382;47.168;16.008;2023-05-07T09:19:44;21.50;95.40
53498;DHT22;39382;47.168;16.008;2023-05-07T09:22:10;21.30;96.00
53498;DHT22;39382;47.168;16.008;2023-05-07T09:24:36;21.10;95.90
53498;DHT22;39382;47.168;16.008;2023-05-07T09:27:04;20.90;96.20
53498;DHT22;39382;47.168;16.008;2023-05-07T09:29:30;20.90;95.80
53498;DHT22;39382;47.168;16.008;2023-05-07T09:32:05;20.60;95.70
53498;DHT22;39382;47.168;16.008;2023-05-07T09:34:31;20.50;95.80
53498;DHT22;39382;47.168;16.008;2023-05-07T09:37:00;20.70;96.40
53498;DHT22;39382;47.168;16.008;2023-05-07T09:39:26;21.30;97.50
53498;DHT22;39382;47.168;16.008;2023-05-07T09:41:52;21.50;96.00
53498;DHT22;39382;47.168;16.008;2023-05-07T09:44:20;21.80;94.40
53498;DHT22;39382;47.168;16.008;2023-05-07T09:46:50;22.10;94.80
53498;DHT22;39382;47.168;16.008;2023-05-07T09:49:22;22.00;92.50
53498;DHT22;39382;47.168;16.008;2023-05-07T09:51:52;22.30;93.90
53498;DHT22;39382;47.168;16.008;2023-05-07T09:54:18;22.40;91.90
53498;DHT22;39382;47.168;16.008;2023-05-07T09:56:48;22.40;92.80
53498;DHT22;39382;47.168;16.008;2023-05-07T09:59:15;22.50;92.00
53498;DHT22;39382;47.168;16.008;2023-05-07T10:01:43;22.30;91.40
53498;DHT22;39382;47.168;16.008;2023-05-07T10:04:10;22.00;91.90
53498;DHT22;39382;47.168;16.008;2023-05-07T10:06:36;21.90;93.00
53498;DHT22;39382;47.168;16.008;2023-05-07T10:09:06;21.90;90.70
53498;DHT22;39382;47.168;16.008;2023-05-07T10:11:33;21.90;92.70
53498;DHT22;39382;47.168;16.008;2023-05-07T10:14:00;22.20;91.40
53498;DHT22;39382;47.168;16.008;2023-05-07T10:16:29;22.60;91.70
53498;DHT22;39382;47.168;16.008;2023-05-07T10:18:57;22.60;91.50
53498;DHT22;39382;47.168;16.008;2023-05-07T10:21:23;22.30;90.90
53498;DHT22;39382;47.168;16.008;2023-05-07T10:23:53;21.90;91.20
53498;DHT22;39382;47.168;16.008;2023-05-07T10:26:22;21.60;90.30
53498;DHT22;39382;47.168;16.008;2023-05-07T10:28:50;21.40;91.50
53498;DHT22;39382;47.168;16.008;2023-05-07T10:33:47;21.30;91.70
53498;DHT22;39382;47.168;16.008;2023-05-07T10:36:14;21.20;91.30
53498;DHT22;39382;47.168;16.008;2023-05-07T10:38:39;21.10;91.40
53498;DHT22;39382;47.168;16.008;2023-05-07T10:41:06;21.30;91.50
53498;DHT22;39382;47.168;16.008;2023-05-07T10:43:42;21.10;91.30
53498;DHT22;39382;47.168;16.008;2023-05-07T10:46:17;21.00;91.50
53498;DHT22;39382;47.168;16.008;2023-05-07T10:51:28;21.20;92.00
53498;DHT22;39382;47.168;16.008;2023-05-07T10:54:18;21.20;91.20
53498;DHT22;39382;47.168;16.008;2023-05-07T10:56:44;21.00;90.70
53498;DHT22;39382;47.168;16.008;2023-05-07T11:01:58;21.60;91.50
53498;DHT22;39382;47.168;16.008;2023-05-07T11:04:25;21.90;90.50
53498;DHT22;39382;47.168;16.008;2023-05-07T11:15:04;22.80;89.40
53498;DHT22;39382;47.168;16.008;2023-05-07T11:17:32;23.10;89.40
53498;DHT22;39382;47.168;16.008;2023-05-07T11:20:00;23.20;87.90
53498;DHT22;39382;47.168;16.008;2023-05-07T11:22:47;23.20;86.10
53498;DHT22;39382;47.168;16.008;2023-05-07T11:25:18;23.10;85.50
53498;DHT22;39382;47.168;16.008;2023-05-07T11:27:47;22.90;86.00
53498;DHT22;39382;47.168;16.008;2023-05-07T11:30:18;22.90;86.60
53498;DHT22;39382;47.168;16.008;2023-05-07T11:32:47;22.80;87.30
53498;DHT22;39382;47.168;16.008;2023-05-07T11:35:14;22.50;89.60
53498;DHT22;39382;47.168;16.008;2023-05-07T11:37:41;22.30;90.00
53498;DHT22;39382;47.168;16.008;2023-05-07T11:40:08;22.20;89.90
53498;DHT22;39382;47.168;16.008;2023-05-07T11:42:40;22.10;90.40
53498;DHT22;39382;47.168;16.008;2023-05-07T11:45:08;22.00;90.80
53498;DHT22;39382;47.168;16.008;2023-05-07T11:47:34;21.80;90.70
53498;DHT22;39382;47.168;16.008;2023-05-07T11:50:05;21.50;90.80
53498;DHT22;39382;47.168;16.008;2023-05-07T11:52:31;21.20;91.10
53498;DHT22;39382;47.168;16.008;2023-05-07T11:54:58;21.10;92.50
53498;DHT22;39382;47.168;16.008;2023-05-07T11:57:25;21.00;92.40
53498;DHT22;39382;47.168;16.008;2023-05-07T11:59:55;20.90;93.30
53498;DHT22;39382;47.168;16.008;2023-05-07T12:02:20;20.90;92.50
53498;DHT22;39382;47.168;16.008;2023-05-07T12:04:46;21.00;92.80
53498;DHT22;39382;47.168;16.008;2023-05-07T12:07:15;21.00;92.40
53498;DHT22;39382;47.168;16.008;2023-05-07T12:09:42;20.90;92.70
53498;DHT22;39382;47.168;16.008;2023-05-07T12:12:08;20.80;92.80
53498;DHT22;39382;47.168;16.008;2023-05-07T12:14:41;20.80;93.60
53498;DHT22;39382;47.168;16.008;2023-05-07T12:17:08;20.80;93.10
53498;DHT22;39382;47.168;16.008;2023-05-07T12:19:35;20.90;94.00
53498;DHT22;39382;47.168;16.008;2023-05-07T12:22:02;20.90;93.60
53498;DHT22;39382;47.168;16.008;2023-05-07T12:24:28;20.50;94.20
53498;DHT22;39382;47.168;16.008;2023-05-07T12:26:54;20.30;95.80
53498;DHT22;39382;47.168;16.008;2023-05-07T12:29:23;20.10;97.10
53498;DHT22;39382;47.168;16.008;2023-05-07T12:31:52;20.00;98.70
53498;DHT22;39382;47.168;16.008;2023-05-07T12:34:18;19.90;99.50
53498;DHT22;39382;47.168;16.008;2023-05-07T12:36:43;19.90;99.90
53498;DHT22;39382;47.168;16.008;2023-05-07T12:39:09;19.90;99.90
53498;DHT22;39382;47.168;16.008;2023-05-07T12:41:54;19.80;99.90
53498;DHT22;39382;47.168;16.008;2023-05-07T12:44:24;19.60;99.90
53498;DHT22;39382;47.168;16.008;2023-05-07T12:46:51;19.30;99.90
53498;DHT22;39382;47.168;16.008;2023-05-07T12:49:17;19.30;99.90
53498;DHT22;39382;47.168;16.008;2023-05-07T12:51:43;19.30;99.90
53498;DHT22;39382;47.168;16.008;2023-05-07T12:54:09;19.40;99.90
53498;DHT22;39382;47.168;16.008;2023-05-07T12:56:38;19.30;99.10
53498;DHT22;39382;47.168;16.008;2023-05-07T12:59:03;19.20;99.70
53498;DHT22;39382;47.168;16.008;2023-05-07T13:01:30;19.20;99.90
53498;DHT22;39382;47.168;16.008;2023-05-07T13:04:00;19.20;99.90
53498;DHT22;39382;47.168;16.008;2023-05-07T13:06:26;19.10;99.90
53498;DHT22;39382;47.168;16.008;2023-05-07T13:08:52;19.20;99.90
53498;DHT22;39382;47.168;16.008;2023-05-07T13:11:17;19.00;99.90
53498;DHT22;39382;47.168;16.008;2023-05-07T13:13:43;18.50;99.90
53498;DHT22;39382;47.168;16.008;2023-05-07T13:16:10;18.20;99.90
53498;DHT22;39382;47.168;16.008;2023-05-07T13:18:37;18.10;99.90
53498;DHT22;39382;47.168;16.008;2023-05-07T13:21:03;17.90;99.90
53498;DHT22;39382;47.168;16.008;2023-05-07T13:23:29;17.70;99.90
53498;DHT22;39382;47.168;16.008;2023-05-07T13:25:55;17.50;99.90
53498;DHT22;39382;47.168;16.008;2023-05-07T13:28:22;17.30;99.90
53498;DHT22;39382;47.168;16.008;2023-05-07T13:30:48;17.10;99.90
53498;DHT22;39382;47.168;16.008;2023-05-07T13:33:13;16.90;99.90
53498;DHT22;39382;47.168;16.008;2023-05-07T13:35:40;16.90;99.90
53498;DHT22;39382;47.168;16.008;2023-05-07T13:38:06;16.60;99.90
53498;DHT22;39382;47.168;16.008;2023-05-07T13:40:31;16.60;99.90
53498;DHT22;39382;47.168;16.008;2023-05-07T13:42:58;16.50;99.90
53498;DHT22;39382;47.168;16.008;2023-05-07T13:45:25;16.50;99.90
53498;DHT22;39382;47.168;16.008;2023-05-07T13:47:52;16.50;99.90
53498;DHT22;39382;47.168;16.008;2023-05-07T13:50:17;16.40;99.90
53498;DHT22;39382;47.168;16.008;2023-05-07T13:52:44;16.40;99.90
53498;DHT22;39382;47.168;16.008;2023-05-07T13:55:20;16.40;99.90
53498;DHT22;39382;47.168;16.008;2023-05-07T13:57:46;16.50;99.90
53498;DHT22;39382;47.168;16.008;2023-05-07T14:00:12;16.50;99.90
53498;DHT22;39382;47.168;16.008;2023-05-07T14:02:38;16.50;99.90
53498;DHT22;39382;47.168;16.008;2023-05-07T14:05:04;16.50;99.90
53498;DHT22;39382;47.168;16.008;2023-05-07T14:07:30;16.50;99.90
53498;DHT22;39382;47.168;16.008;2023-05-07T14:09:56;16.50;99.90
53498;DHT22;39382;47.168;16.008;2023-05-07T14:12:22;16.60;99.90
53498;DHT22;39382;47.168;16.008;2023-05-07T14:14:48;16.70;99.90
53498;DHT22;39382;47.168;16.008;2023-05-07T14:17:18;16.80;99.90
53498;DHT22;39382;47.168;16.008;2023-05-07T14:19:44;16.80;99.90
53498;DHT22;39382;47.168;16.008;2023-05-07T14:22:10;16.80;99.90
53498;DHT22;39382;47.168;16.008;2023-05-07T14:24:35;16.90;99.90
53498;DHT22;39382;47.168;16.008;2023-05-07T14:27:01;17.00;99.90
53498;DHT22;39382;47.168;16.008;2023-05-07T14:29:27;17.10;99.90
53498;DHT22;39382;47.168;16.008;2023-05-07T14:31:53;17.20;99.90
53498;DHT22;39382;47.168;16.008;2023-05-07T14:34:19;17.20;99.90
53498;DHT22;39382;47.168;16.008;2023-05-07T14:36:44;17.20;99.90
53498;DHT22;39382;47.168;16.008;2023-05-07T14:39:10;17.40;99.90
53498;DHT22;39382;47.168;16.008;2023-05-07T14:41:35;17.50;99.90
53498;DHT22;39382;47.168;16.008;2023-05-07T14:44:01;17.60;99.90
53498;DHT22;39382;47.168;16.008;2023-05-07T14:46:29;17.80;99.90
53498;DHT22;39382;47.168;16.008;2023-05-07T14:48:54;17.90;99.90
53498;DHT22;39382;47.168;16.008;2023-05-07T14:51:20;18.10;99.90
53498;DHT22;39382;47.168;16.008;2023-05-07T14:53:46;18.30;99.90
53498;DHT22;39382;47.168;16.008;2023-05-07T14:56:12;18.40;99.90
53498;DHT22;39382;47.168;16.008;2023-05-07T14:58:37;18.70;99.90
53498;DHT22;39382;47.168;16.008;2023-05-07T15:01:03;18.80;99.90
53498;DHT22;39382;47.168;16.008;2023-05-07T15:03:29;18.80;99.90
53498;DHT22;39382;47.168;16.008;2023-05-07T15:05:55;18.70;99.90
53498;DHT22;39382;47.168;16.008;2023-05-07T15:08:21;18.50;99.90
53498;DHT22;39382;47.168;16.008;2023-05-07T15:10:46;18.50;99.90
53498;DHT22;39382;47.168;16.008;2023-05-07T15:13:12;18.50;99.90
53498;DHT22;39382;47.168;16.008;2023-05-07T15:15:39;18.60;99.90
53498;DHT22;39382;47.168;16.008;2023-05-07T15:18:05;18.60;99.90
53498;DHT22;39382;47.168;16.008;2023-05-07T15:20:31;18.50;99.90
53498;DHT22;39382;47.168;16.008;2023-05-07T15:22:56;18.50;99.90
53498;DHT22;39382;47.168;16.008;2023-05-07T15:25:23;18.60;99.90
53498;DHT22;39382;47.168;16.008;2023-05-07T15:27:48;18.60;99.90